createdAt,value
2023-01-22T00:00:04.151Z,99.02
2023-01-22T00:02:30.633Z,98.98
2023-01-22T00:04:57.051Z,99.04
2023-01-22T00:07:23.480Z,98.73
2023-01-22T00:09:49.887Z,98.79
2023-01-22T00:12:16.737Z,98.93
2023-01-22T00:14:43.379Z,98.86
2023-01-22T00:17:09.953Z,98.82
2023-01-22T00:19:36.367Z,99.00
2023-01-22T00:22:02.804Z,99.22
2023-01-22T00:24:29.236Z,99.01
2023-01-22T00:26:55.661Z,99.17
2023-01-22T00:29:22.114Z,99.16
2023-01-22T00:31:48.666Z,99.41
2023-01-22T00:34:15.238Z,99.52
2023-01-22T00:36:41.687Z,99.24
2023-01-22T00:39:09.320Z,99.40
2023-01-22T00:41:36.784Z,99.60
2023-01-22T00:44:03.350Z,99.41
2023-01-22T00:46:29.982Z,99.45
2023-01-22T00:48:56.460Z,99.66
2023-01-22T00:51:22.902Z,99.37
2023-01-22T00:53:49.456Z,99.17
2023-01-22T00:56:15.993Z,99.39
2023-01-22T00:58:42.711Z,99.05
2023-01-22T01:01:09.348Z,99.38
2023-01-22T01:03:37.475Z,98.93
2023-01-22T01:06:08.162Z,98.97
2023-01-22T01:08:36.987Z,99.62
2023-01-22T01:11:09.559Z,99.60
2023-01-22T01:13:38.415Z,99.56
2023-01-22T01:16:07.922Z,99.11
2023-01-22T01:18:35.026Z,99.53
2023-01-22T01:21:01.903Z,99.36
2023-01-22T01:23:29.035Z,99.17
2023-01-22T01:25:55.827Z,99.51
2023-01-22T01:28:22.809Z,99.56
2023-01-22T01:30:49.261Z,99.64
2023-01-22T01:33:15.720Z,99.19
2023-01-22T01:35:42.163Z,99.87
2023-01-22T01:38:08.564Z,99.46
2023-01-22T01:40:35.493Z,99.92
2023-01-22T01:43:02.035Z,99.67
2023-01-22T01:45:34.606Z,99.61
2023-01-22T01:48:29.123Z,99.94
2023-01-22T01:51:10.399Z,99.63
2023-01-22T01:53:37.902Z,99.39
2023-01-22T01:56:11.124Z,99.23
2023-01-22T01:58:38.634Z,99.23
2023-01-22T02:01:11.626Z,99.54
2023-01-22T02:03:39.254Z,99.28
2023-01-22T02:06:05.847Z,99.55
2023-01-22T02:08:32.369Z,99.20
2023-01-22T02:10:58.900Z,99.18
2023-01-22T02:13:27.969Z,99.30
2023-01-22T02:15:54.698Z,99.24
2023-01-22T02:18:21.214Z,99.06
2023-01-22T02:20:56.636Z,99.40
2023-01-22T02:23:23.205Z,98.90
2023-01-22T02:25:49.712Z,99.06
2023-01-22T02:28:16.591Z,98.68
2023-01-22T02:30:43.578Z,98.63
2023-01-22T02:33:10.052Z,98.25
2023-01-22T02:35:36.534Z,98.25
2023-01-22T02:38:04.564Z,98.26
2023-01-22T02:40:30.972Z,98.15
2023-01-22T02:42:57.712Z,98.14
2023-01-22T02:45:24.200Z,98.04
2023-01-22T02:47:50.617Z,98.15
2023-01-22T02:50:18.128Z,97.99
2023-01-22T02:52:44.705Z,97.89
2023-01-22T02:55:11.318Z,97.89
2023-01-22T02:57:37.735Z,98.03
2023-01-22T03:00:05.146Z,97.62
2023-01-22T03:02:31.648Z,97.72
2023-01-22T03:05:03.282Z,97.76
2023-01-22T03:07:43.060Z,97.90
2023-01-22T03:10:15.046Z,97.97
2023-01-22T03:13:00.584Z,97.92
2023-01-22T03:15:45.774Z,98.16
2023-01-22T03:18:31.313Z,97.72
2023-01-22T03:21:16.262Z,97.85
2023-01-22T03:23:44.471Z,97.75
2023-01-22T03:26:10.913Z,98.12
2023-01-22T03:28:37.766Z,97.75
2023-01-22T03:31:04.578Z,98.03
2023-01-22T03:33:31.049Z,97.96
2023-01-22T03:36:06.038Z,97.84
2023-01-22T03:38:32.842Z,97.86
2023-01-22T03:41:13.678Z,97.97
2023-01-22T03:43:40.579Z,97.92
2023-01-22T03:46:14.882Z,98.02
2023-01-22T03:48:41.905Z,98.30
2023-01-22T03:51:15.759Z,98.28
2023-01-22T03:53:43.565Z,98.16
2023-01-22T03:56:15.649Z,98.19
2023-01-22T03:58:42.443Z,98.07
2023-01-22T04:01:12.117Z,98.28
2023-01-22T04:03:38.877Z,97.92
2023-01-22T04:06:05.935Z,97.70
2023-01-22T04:08:33.644Z,97.57
2023-01-22T04:11:01.479Z,97.93
2023-01-22T04:13:29.445Z,98.03
2023-01-22T04:15:56.040Z,98.00
2023-01-22T04:18:22.461Z,97.86
2023-01-22T04:20:49.531Z,97.62
2023-01-22T04:23:16.580Z,97.74
2023-01-22T04:25:43.632Z,97.88
2023-01-22T04:28:10.967Z,97.92
2023-01-22T04:30:38.618Z,97.91
2023-01-22T04:33:05.100Z,97.71
2023-01-22T04:35:31.547Z,97.89
2023-01-22T04:37:58.621Z,97.79
2023-01-22T04:40:25.208Z,98.04
2023-01-22T04:42:51.831Z,97.74
2023-01-22T04:45:19.022Z,98.08
2023-01-22T04:47:48.702Z,97.62
2023-01-22T04:50:17.828Z,97.43
2023-01-22T04:52:44.657Z,97.55
2023-01-22T04:55:11.481Z,97.56
2023-01-22T04:57:38.372Z,97.52
2023-01-22T05:00:05.989Z,97.59
2023-01-22T05:02:32.590Z,97.67
2023-01-22T05:04:58.985Z,97.43
2023-01-22T05:07:25.422Z,97.35
2023-01-22T05:09:51.814Z,97.72
2023-01-22T05:12:18.207Z,97.56
2023-01-22T05:14:44.617Z,97.38
2023-01-22T05:17:11.043Z,97.28
2023-01-22T05:19:37.615Z,96.90
2023-01-22T05:22:04.477Z,97.24
2023-01-22T05:24:30.999Z,96.91
2023-01-22T05:26:57.617Z,97.16
2023-01-22T05:29:26.025Z,96.92
2023-01-22T05:31:56.576Z,96.69
2023-01-22T05:34:23.526Z,96.94
2023-01-22T05:36:50.064Z,96.60
2023-01-22T05:39:17.110Z,96.60
2023-01-22T05:41:43.693Z,96.88
2023-01-22T05:44:11.552Z,96.42
2023-01-22T05:46:37.960Z,96.67
2023-01-22T05:49:05.304Z,96.57
2023-01-22T05:51:32.510Z,96.79
2023-01-22T05:53:59.055Z,96.88
2023-01-22T05:56:25.479Z,96.70
2023-01-22T05:58:52.116Z,97.19
2023-01-22T06:01:18.765Z,97.24
2023-01-22T06:03:45.287Z,97.04
2023-01-22T06:06:13.498Z,97.18
2023-01-22T06:08:39.928Z,97.27
2023-01-22T06:11:09.050Z,97.36
2023-01-22T06:13:35.558Z,97.37
2023-01-22T06:16:02.084Z,97.29
2023-01-22T06:18:28.779Z,96.85
2023-01-22T06:21:00.715Z,97.02
2023-01-22T06:23:28.124Z,96.53
2023-01-22T06:25:56.300Z,96.93
2023-01-22T06:28:23.007Z,96.35
2023-01-22T06:30:49.597Z,96.45
2023-01-22T06:33:16.091Z,96.93
2023-01-22T06:35:42.614Z,96.65
2023-01-22T06:38:09.115Z,96.64
2023-01-22T06:40:35.548Z,96.52
2023-01-22T06:43:02.952Z,96.64
2023-01-22T06:45:29.379Z,96.37
2023-01-22T06:47:55.822Z,96.31
2023-01-22T06:50:22.350Z,96.61
2023-01-22T06:52:48.772Z,96.69
2023-01-22T06:55:15.215Z,96.22
2023-01-22T06:57:41.672Z,96.20
2023-01-22T07:00:08.667Z,96.23
2023-01-22T07:02:35.088Z,95.99
2023-01-22T07:05:01.510Z,95.88
2023-01-22T07:07:27.944Z,96.11
2023-01-22T07:09:54.394Z,96.13
2023-01-22T07:12:20.917Z,95.92
2023-01-22T07:14:47.305Z,96.02
2023-01-22T07:17:13.792Z,96.03
2023-01-22T07:19:40.193Z,96.15
2023-01-22T07:22:06.609Z,95.85
2023-01-22T07:24:33.064Z,96.16
2023-01-22T07:27:01.401Z,95.62
2023-01-22T07:29:27.838Z,96.27
2023-01-22T07:31:54.301Z,96.02
2023-01-22T07:34:20.861Z,95.80
2023-01-22T07:36:47.263Z,95.79
2023-01-22T07:39:13.813Z,95.82
2023-01-22T07:41:40.235Z,95.72
2023-01-22T07:44:08.398Z,95.70
2023-01-22T07:46:35.505Z,95.69
2023-01-22T07:49:02.014Z,95.81
2023-01-22T07:51:28.523Z,95.40
2023-01-22T07:53:55.144Z,95.80
2023-01-22T07:56:21.627Z,95.82
2023-01-22T07:58:48.260Z,95.70
2023-01-22T08:01:15.650Z,95.51
2023-01-22T08:03:42.304Z,95.39
2023-01-22T08:06:09.559Z,95.47
2023-01-22T08:08:36.112Z,95.45
2023-01-22T08:11:02.506Z,95.05
2023-01-22T08:13:28.920Z,95.32
2023-01-22T08:15:55.303Z,95.12
2023-01-22T08:18:23.008Z,95.12
2023-01-22T08:20:49.623Z,95.21
2023-01-22T08:23:16.088Z,95.25
2023-01-22T08:25:42.504Z,94.81
2023-01-22T08:28:08.936Z,95.20
2023-01-22T08:30:45.488Z,94.99
2023-01-22T08:33:12.322Z,94.90
2023-01-22T08:35:39.673Z,94.83
2023-01-22T08:38:06.183Z,94.69
2023-01-22T08:40:32.561Z,94.96
2023-01-22T08:42:58.991Z,94.43
2023-01-22T08:45:25.503Z,94.82
2023-01-22T08:47:56.531Z,94.84
2023-01-22T08:50:23.028Z,95.12
2023-01-22T08:52:49.459Z,94.92
2023-01-22T08:55:15.867Z,94.68
2023-01-22T08:57:42.280Z,94.24
2023-01-22T09:00:11.259Z,94.42
2023-01-22T09:02:37.676Z,94.02
2023-01-22T09:05:04.238Z,94.04
2023-01-22T09:07:30.668Z,94.18
2023-01-22T09:09:57.100Z,94.24
2023-01-22T09:12:23.758Z,94.32
2023-01-22T09:14:50.164Z,94.00
2023-01-22T09:17:16.570Z,94.11
2023-01-22T09:19:43.097Z,93.42
2023-01-22T09:22:09.629Z,93.78
2023-01-22T09:24:36.056Z,93.49
2023-01-22T09:27:02.466Z,93.45
2023-01-22T09:29:28.856Z,93.21
2023-01-22T09:31:55.311Z,93.26
2023-01-22T09:34:21.759Z,93.15
2023-01-22T09:36:48.474Z,93.08
2023-01-22T09:39:14.896Z,92.74
2023-01-22T09:41:43.586Z,92.81
2023-01-22T09:44:25.230Z,92.49
2023-01-22T09:46:59.965Z,92.29
2023-01-22T09:49:32.664Z,92.76
2023-01-22T09:52:00.827Z,91.92
2023-01-22T09:54:28.757Z,92.77
2023-01-22T09:57:00.476Z,92.16
2023-01-22T09:59:31.042Z,92.07
2023-01-22T10:02:00.350Z,91.77
2023-01-22T10:04:33.331Z,92.17
2023-01-22T10:07:01.730Z,92.11
2023-01-22T10:09:31.051Z,91.59
2023-01-22T10:11:59.152Z,91.89
2023-01-22T10:14:28.098Z,91.66
2023-01-22T10:16:55.819Z,91.43
2023-01-22T10:19:29.009Z,91.46
2023-01-22T10:22:01.316Z,91.57
2023-01-22T10:24:28.377Z,91.55
2023-01-22T10:26:55.811Z,91.20
2023-01-22T10:29:30.874Z,91.68
2023-01-22T10:32:02.958Z,91.14
2023-01-22T10:34:32.749Z,91.65
2023-01-22T10:37:09.311Z,91.25
2023-01-22T10:39:40.565Z,91.69
2023-01-22T10:42:07.323Z,91.34
2023-01-22T10:44:33.764Z,91.70
2023-01-22T10:47:20.460Z,91.55
2023-01-22T10:49:48.198Z,91.42
2023-01-22T10:52:27.569Z,91.51
2023-01-22T10:54:56.255Z,91.52
2023-01-22T10:57:27.781Z,91.21
2023-01-22T11:00:19.930Z,91.90
2023-01-22T11:02:48.270Z,91.38
2023-01-22T11:05:18.044Z,91.55
2023-01-22T11:07:46.575Z,91.21
2023-01-22T11:10:23.463Z,90.96
2023-01-22T11:12:55.124Z,91.04
2023-01-22T11:15:29.001Z,91.21
2023-01-22T11:17:59.909Z,91.64
2023-01-22T11:20:31.109Z,91.48
2023-01-22T11:23:09.451Z,91.08
2023-01-22T11:25:44.967Z,91.26
2023-01-22T11:28:41.674Z,91.14
2023-01-22T11:31:50.739Z,90.88
2023-01-22T11:34:33.650Z,90.78
2023-01-22T11:37:23.632Z,90.94
2023-01-22T11:40:17.640Z,91.03
2023-01-22T11:42:50.217Z,91.12
2023-01-22T11:45:27.959Z,90.57
2023-01-22T11:48:10.988Z,90.77
2023-01-22T11:50:43.494Z,91.03
2023-01-22T11:53:28.187Z,90.61
2023-01-22T11:56:13.261Z,90.13
2023-01-22T11:59:08.609Z,90.31
2023-01-22T12:01:58.408Z,90.57
2023-01-22T12:05:03.004Z,90.77
2023-01-22T12:07:50.603Z,91.00
2023-01-22T12:10:44.411Z,90.80
2023-01-22T12:13:34.002Z,90.99
2023-01-22T12:16:23.642Z,91.25
2023-01-22T12:18:58.532Z,90.68
2023-01-22T12:21:47.096Z,90.93
2023-01-22T12:24:33.401Z,91.12
2023-01-22T12:27:04.024Z,91.26
2023-01-22T12:29:34.831Z,91.01
2023-01-22T12:32:10.955Z,91.37
2023-01-22T12:35:00.577Z,90.99
2023-01-22T12:37:34.076Z,91.25
2023-01-22T12:40:19.657Z,91.01
2023-01-22T12:43:00.327Z,91.06
2023-01-22T12:46:02.515Z,90.97
2023-01-22T12:48:54.343Z,90.98
2023-01-22T12:51:38.909Z,90.82
2023-01-22T12:54:32.291Z,90.97
2023-01-22T12:57:22.818Z,90.33
2023-01-22T13:00:22.441Z,90.68
2023-01-22T13:02:48.931Z,90.88
2023-01-22T13:05:18.713Z,90.19
2023-01-22T13:07:45.831Z,90.48
2023-01-22T13:10:33.449Z,90.36
2023-01-22T13:13:29.498Z,90.24
2023-01-22T13:16:06.700Z,90.08
2023-01-22T13:18:38.193Z,90.57
2023-01-22T13:21:07.611Z,90.41
2023-01-22T13:23:41.931Z,90.27
2023-01-22T13:26:16.797Z,90.22
2023-01-22T13:28:49.610Z,90.13
2023-01-22T13:31:16.801Z,90.16
2023-01-22T13:33:58.199Z,90.64
2023-01-22T13:36:25.474Z,90.45
2023-01-22T13:38:57.721Z,90.29
2023-01-22T13:41:30.683Z,90.93
2023-01-22T13:43:57.122Z,90.53
2023-01-22T13:46:23.870Z,90.69
2023-01-22T13:49:07.467Z,90.59
2023-01-22T13:51:35.244Z,90.52
2023-01-22T13:54:02.347Z,90.04
2023-01-22T13:56:29.103Z,90.58
2023-01-22T13:59:18.850Z,90.09
2023-01-22T14:01:46.185Z,90.18
2023-01-22T14:04:26.294Z,90.65
2023-01-22T14:06:52.724Z,90.59
2023-01-22T14:09:33.979Z,90.66
2023-01-22T14:12:22.887Z,91.00
2023-01-22T14:14:49.386Z,91.14
2023-01-22T14:17:28.749Z,90.80
2023-01-22T14:19:56.304Z,90.95
2023-01-22T14:22:23.544Z,90.96
2023-01-22T14:24:52.899Z,91.16
2023-01-22T14:27:21.306Z,91.13
2023-01-22T14:29:48.357Z,91.44
2023-01-22T14:32:14.772Z,91.16
2023-01-22T14:34:41.329Z,91.29
2023-01-22T14:37:07.758Z,91.50
2023-01-22T14:39:35.212Z,91.75
2023-01-22T14:42:02.050Z,91.57
2023-01-22T14:44:28.548Z,91.31
2023-01-22T14:46:54.987Z,91.98
2023-01-22T14:49:21.399Z,91.84
2023-01-22T14:51:47.867Z,92.32
2023-01-22T14:54:14.284Z,91.63
2023-01-22T14:56:40.694Z,91.78
2023-01-22T14:59:07.116Z,91.75
2023-01-22T15:01:33.524Z,91.56
2023-01-22T15:04:01.238Z,91.74
2023-01-22T15:06:27.709Z,92.32
2023-01-22T15:08:54.128Z,92.45
2023-01-22T15:11:20.581Z,92.22
2023-01-22T15:13:47.475Z,92.34
2023-01-22T15:16:13.930Z,91.85
2023-01-22T15:18:40.373Z,91.91
2023-01-22T15:21:07.088Z,92.08
2023-01-22T15:23:34.262Z,91.81
2023-01-22T15:26:02.827Z,91.92
2023-01-22T15:28:29.529Z,91.93
2023-01-22T15:30:58.798Z,92.06
2023-01-22T15:33:25.291Z,92.21
2023-01-22T15:35:51.996Z,92.17
2023-01-22T15:38:18.445Z,92.30
2023-01-22T15:40:44.838Z,91.84
2023-01-22T15:43:11.265Z,92.05
2023-01-22T15:45:37.768Z,92.30
2023-01-22T15:48:04.238Z,92.28
2023-01-22T15:50:30.646Z,91.99
2023-01-22T15:52:59.905Z,92.13
2023-01-22T15:55:27.092Z,92.12
2023-01-22T15:57:53.487Z,91.92
2023-01-22T16:00:21.359Z,92.39
2023-01-22T16:02:47.799Z,92.10
2023-01-22T16:05:14.411Z,92.07
2023-01-22T16:07:40.848Z,92.47
2023-01-22T16:10:07.461Z,92.50
2023-01-22T16:12:34.850Z,92.17
2023-01-22T16:15:01.279Z,92.07
2023-01-22T16:17:27.688Z,91.59
2023-01-22T16:19:54.139Z,92.11
2023-01-22T16:22:20.530Z,92.65
2023-01-22T16:24:47.091Z,92.08
2023-01-22T16:27:13.581Z,92.18
2023-01-22T16:29:40.092Z,92.41
2023-01-22T16:32:06.669Z,92.31
2023-01-22T16:34:33.118Z,92.11
2023-01-22T16:36:59.665Z,92.05
2023-01-22T16:39:26.686Z,92.36
2023-01-22T16:41:53.683Z,92.24
2023-01-22T16:44:24.487Z,92.02
2023-01-22T16:46:54.270Z,92.29
2023-01-22T16:49:22.973Z,92.35
2023-01-22T16:51:54.829Z,92.27
2023-01-22T16:54:32.936Z,92.21
2023-01-22T16:57:00.683Z,92.27
2023-01-22T16:59:27.567Z,92.44
2023-01-22T17:01:54.652Z,92.45
2023-01-22T17:04:21.270Z,92.30
2023-01-22T17:06:50.061Z,92.23
2023-01-22T17:09:19.653Z,92.55
2023-01-22T17:11:49.760Z,92.51
2023-01-22T17:14:18.644Z,92.49
2023-01-22T17:16:45.242Z,92.67
2023-01-22T17:19:11.665Z,92.61
2023-01-22T17:21:38.109Z,93.17
2023-01-22T17:24:04.985Z,92.71
2023-01-22T17:26:31.485Z,92.53
2023-01-22T17:28:57.948Z,93.32
2023-01-22T17:31:24.915Z,92.70
2023-01-22T17:33:55.199Z,92.86
2023-01-22T17:36:24.070Z,92.78
2023-01-22T17:38:51.640Z,93.11
2023-01-22T17:41:20.250Z,92.72
2023-01-22T17:43:48.176Z,93.36
2023-01-22T17:46:16.920Z,93.24
2023-01-22T17:48:44.512Z,93.01
2023-01-22T17:51:13.718Z,93.07
2023-01-22T17:53:42.098Z,93.13
2023-01-22T17:56:12.883Z,93.14
2023-01-22T17:58:43.839Z,93.08
2023-01-22T18:01:12.430Z,92.79
2023-01-22T18:03:38.942Z,93.28
2023-01-22T18:06:05.810Z,93.04
2023-01-22T18:08:33.168Z,93.02
2023-01-22T18:10:59.789Z,93.53
2023-01-22T18:13:26.355Z,92.95
2023-01-22T18:15:53.034Z,93.13
2023-01-22T18:18:19.442Z,93.26
2023-01-22T18:20:46.304Z,93.40
2023-01-22T18:23:14.242Z,93.21
2023-01-22T18:25:46.716Z,93.26
2023-01-22T18:28:14.914Z,93.78
2023-01-22T18:30:41.388Z,93.40
2023-01-22T18:33:07.916Z,93.47
2023-01-22T18:35:34.646Z,93.64
2023-01-22T18:38:02.030Z,93.86
2023-01-22T18:40:30.806Z,93.87
2023-01-22T18:42:57.902Z,93.70
2023-01-22T18:45:25.177Z,94.08
2023-01-22T18:47:55.201Z,94.10
2023-01-22T18:50:22.504Z,94.35
2023-01-22T18:52:49.311Z,94.12
2023-01-22T18:55:16.900Z,94.06
2023-01-22T18:57:46.259Z,93.85
2023-01-22T19:00:13.699Z,94.24
2023-01-22T19:02:40.188Z,93.96
2023-01-22T19:05:07.351Z,93.80
2023-01-22T19:07:38.056Z,93.50
2023-01-22T19:10:06.190Z,93.94
2023-01-22T19:12:32.614Z,93.59
2023-01-22T19:14:59.091Z,93.94
2023-01-22T19:17:25.679Z,93.74
2023-01-22T19:19:52.210Z,93.99
2023-01-22T19:22:18.639Z,93.94
2023-01-22T19:24:45.549Z,93.69
2023-01-22T19:27:12.516Z,93.87
2023-01-22T19:29:39.654Z,94.37
2023-01-22T19:32:06.480Z,93.85
2023-01-22T19:34:32.925Z,93.54
2023-01-22T19:37:02.208Z,94.07
2023-01-22T19:39:29.179Z,94.65
2023-01-22T19:41:56.590Z,94.36
2023-01-22T19:44:23.057Z,94.22
2023-01-22T19:46:49.609Z,94.35
2023-01-22T19:49:16.092Z,94.08
2023-01-22T19:51:42.908Z,94.08
2023-01-22T19:54:10.144Z,94.18
2023-01-22T19:56:37.823Z,94.29
2023-01-22T19:59:07.598Z,94.01
2023-01-22T20:01:34.873Z,94.13
2023-01-22T20:04:01.323Z,93.96
2023-01-22T20:06:27.783Z,93.35
2023-01-22T20:08:55.247Z,93.56
2023-01-22T20:11:21.905Z,94.27
2023-01-22T20:13:48.808Z,93.78
2023-01-22T20:16:21.908Z,93.43
2023-01-22T20:18:49.140Z,93.89
2023-01-22T20:21:16.934Z,93.63
2023-01-22T20:23:44.563Z,93.61
2023-01-22T20:26:11.695Z,93.61
2023-01-22T20:28:39.446Z,93.61
2023-01-22T20:31:09.889Z,93.29
2023-01-22T20:33:37.234Z,93.24
2023-01-22T20:36:09.647Z,93.17
2023-01-22T20:38:36.213Z,93.44
2023-01-22T20:41:05.057Z,93.23
2023-01-22T20:43:32.122Z,93.24
2023-01-22T20:46:05.123Z,93.61
2023-01-22T20:48:32.381Z,93.61
2023-01-22T20:50:58.991Z,93.29
2023-01-22T20:53:26.308Z,93.52
2023-01-22T20:56:04.156Z,93.13
2023-01-22T20:58:32.070Z,93.30
2023-01-22T21:01:06.823Z,93.55
2023-01-22T21:03:33.731Z,93.09
2023-01-22T21:06:05.119Z,93.15
2023-01-22T21:08:31.671Z,93.09
2023-01-22T21:10:59.284Z,92.69
2023-01-22T21:13:25.898Z,93.02
2023-01-22T21:15:52.613Z,92.69
2023-01-22T21:18:19.807Z,92.95
2023-01-22T21:20:46.277Z,92.89
2023-01-22T21:23:12.946Z,92.96
2023-01-22T21:25:39.357Z,92.76
2023-01-22T21:28:05.907Z,92.59
2023-01-22T21:30:32.372Z,93.07
2023-01-22T21:32:58.800Z,92.87
2023-01-22T21:35:25.259Z,93.58
2023-01-22T21:37:51.685Z,93.11
2023-01-22T21:40:18.396Z,92.97
2023-01-22T21:43:03.647Z,92.78
2023-01-22T21:45:48.678Z,93.05
2023-01-22T21:48:15.124Z,93.08
2023-01-22T21:50:43.003Z,93.19
2023-01-22T21:53:10.393Z,93.00
2023-01-22T21:55:36.845Z,93.38
2023-01-22T21:58:04.155Z,93.20
2023-01-22T22:00:30.913Z,93.68
2023-01-22T22:02:57.673Z,93.17
2023-01-22T22:05:24.112Z,93.23
2023-01-22T22:07:50.529Z,93.89
2023-01-22T22:10:17.709Z,93.78
2023-01-22T22:12:44.353Z,93.86
2023-01-22T22:15:12.089Z,93.97
2023-01-22T22:17:38.862Z,93.53
2023-01-22T22:20:06.164Z,94.09
2023-01-22T22:22:32.559Z,93.72
2023-01-22T22:24:58.962Z,94.10
2023-01-22T22:27:27.735Z,94.20
2023-01-22T22:29:54.452Z,94.02
2023-01-22T22:32:21.588Z,94.10
2023-01-22T22:34:49.366Z,93.80
2023-01-22T22:37:16.610Z,93.52
2023-01-22T22:39:43.047Z,93.30
2023-01-22T22:42:09.550Z,93.80
2023-01-22T22:44:37.461Z,93.75
2023-01-22T22:47:04.779Z,93.36
2023-01-22T22:49:31.706Z,93.28
2023-01-22T22:51:58.219Z,93.67
2023-01-22T22:54:24.720Z,92.79
2023-01-22T22:56:52.700Z,93.13
2023-01-22T22:59:22.162Z,93.04
2023-01-22T23:01:49.657Z,92.98
2023-01-22T23:04:16.520Z,93.29
2023-01-22T23:06:45.019Z,92.70
2023-01-22T23:09:13.729Z,92.53
2023-01-22T23:11:40.535Z,93.22
2023-01-22T23:14:07.559Z,92.42
2023-01-22T23:16:39.484Z,92.71
2023-01-22T23:19:15.516Z,92.54
2023-01-22T23:21:42.280Z,92.79
2023-01-22T23:24:10.886Z,92.93
2023-01-22T23:26:37.964Z,92.91
2023-01-22T23:29:07.307Z,92.92
2023-01-22T23:31:36.133Z,93.08
2023-01-22T23:34:03.549Z,93.14
2023-01-22T23:36:30.741Z,93.05
2023-01-22T23:38:57.195Z,92.96
2023-01-22T23:41:23.744Z,92.61
2023-01-22T23:43:50.488Z,92.71
2023-01-22T23:46:19.574Z,92.40
2023-01-22T23:48:46.098Z,92.83
2023-01-22T23:51:13.780Z,92.80
2023-01-22T23:53:42.298Z,92.43
2023-01-22T23:56:10.273Z,92.52
2023-01-22T23:58:36.899Z,92.50
